PWSweather.com
Personal Weather Stations
Station Observations
METEOBREDA
City, BredaNL 4824KH

CityBredaNL 4824KH

Lat: 51.6128536, Lon: 4.7426793

Elevation: 7

Station Type: WS4000(WH1080)

http://www.meteobreda.nl

High Low Average
Temperature 74.3°F23.5°C 54.0°F12.2°C 63.2°F17.3°C
Dew Point 55.8°F13.2°C 43.6°F6.4°C 49.4°F9.7°C
Winds 5.4 mph 8.7 kmh Calm Calm 1.0 mph S1.6 kmh S
Wind Gusts 13.0 mph20.9 kmh 1.6 mph2.6 kmh 6.0 mph9.7 kmh
Humidity 91% 35% 63%
Pressure 29.83 in1010.2 mb 29.77 in1008.1 mb -
Precipitation 0.00 in0.0 mm - -
Hour Temp Dew Point Humidity Winds Wind Gusts Pressure Precip Precip Rate Daily Precip Total
12:00 AM 57.9°F14.4°C 50.8°F10.4°C 77% Calm Calm 1.6 mph2.6 kmh 29.77 in1008.1 mb 0.00 in0.0 mm 0.00 in/hr0.0 mm/hr 0.00 in0.0 mm
12:05 AM 57.9°F14.4°C 50.8°F10.4°C 77% Calm Calm 1.6 mph2.6 kmh 29.78 in1008.5 mb 0.00 in0.0 mm 0.00 in/hr0.0 mm/hr 0.00 in0.0 mm
12:10 AM 57.9°F14.4°C 50.8°F10.4°C 77% Calm Calm 1.6 mph2.6 kmh 29.78 in1008.5 mb 0.00 in0.0 mm 0.00 in/hr0.0 mm/hr 0.00 in0.0 mm
12:15 AM 57.9°F14.4°C 50.8°F10.4°C 77% Calm Calm 1.6 mph2.6 kmh 29.78 in1008.5 mb 0.00 in0.0 mm 0.00 in/hr0.0 mm/hr 0.00 in0.0 mm
12:20 AM 57.9°F14.4°C 50.8°F10.4°C 77% Calm Calm 1.6 mph2.6 kmh 29.78 in1008.5 mb 0.00 in0.0 mm 0.00 in/hr0.0 mm/hr 0.00 in0.0 mm
12:25 AM 57.9°F14.4°C 50.8°F10.4°C 77% Calm Calm 1.6 mph2.6 kmh 29.78 in1008.5 mb 0.00 in0.0 mm 0.00 in/hr0.0 mm/hr 0.00 in0.0 mm
12:30 AM 57.9°F14.4°C 50.8°F10.4°C 77% Calm Calm 3.1 mph5.0 kmh 29.78 in1008.5 mb 0.00 in0.0 mm 0.00 in/hr0.0 mm/hr 0.00 in0.0 mm
12:35 AM 57.9°F14.4°C 50.8°F10.4°C 77% Calm Calm 3.1 mph5.0 kmh 29.78 in1008.5 mb 0.00 in0.0 mm 0.00 in/hr0.0 mm/hr 0.00 in0.0 mm
12:40 AM 57.9°F14.4°C 50.8°F10.4°C 77% Calm Calm 2.2 mph3.5 kmh 29.78 in1008.5 mb 0.00 in0.0 mm 0.00 in/hr0.0 mm/hr 0.00 in0.0 mm
12:45 AM 57.9°F14.4°C 50.8°F10.4°C 77% 0.7 mph E1.1 kmh E 3.1 mph5.0 kmh 29.78 in1008.5 mb 0.00 in0.0 mm 0.00 in/hr0.0 mm/hr 0.00 in0.0 mm
12:50 AM 57.9°F14.4°C 50.8°F10.4°C 77% Calm Calm 3.1 mph5.0 kmh 29.78 in1008.5 mb 0.00 in0.0 mm 0.00 in/hr0.0 mm/hr 0.00 in0.0 mm
12:55 AM 57.7°F14.3°C 50.6°F10.3°C 77% 0.7 mph NE1.1 kmh NE 3.1 mph5.0 kmh 29.78 in1008.5 mb 0.00 in0.0 mm 0.00 in/hr0.0 mm/hr 0.00 in0.0 mm
01:00 AM 57.9°F14.4°C 50.8°F10.4°C 77% 0.7 mph ENE1.1 kmh ENE 3.1 mph5.0 kmh 29.78 in1008.5 mb 0.00 in0.0 mm 0.00 in/hr0.0 mm/hr 0.00 in0.0 mm
01:05 AM 57.9°F14.4°C 50.8°F10.4°C 77% 0.7 mph ENE1.1 kmh ENE 3.1 mph5.0 kmh 29.78 in1008.5 mb 0.00 in0.0 mm 0.00 in/hr0.0 mm/hr 0.00 in0.0 mm
01:10 AM 57.9°F14.4°C 50.8°F10.4°C 77% Calm Calm 2.2 mph3.5 kmh 29.78 in1008.5 mb 0.00 in0.0 mm 0.00 in/hr0.0 mm/hr 0.00 in0.0 mm
01:15 AM 57.9°F14.4°C 50.8°F10.4°C 77% Calm Calm 2.2 mph3.5 kmh 29.78 in1008.5 mb 0.00 in0.0 mm 0.00 in/hr0.0 mm/hr 0.00 in0.0 mm
01:20 AM 57.9°F14.4°C 51.1°F10.6°C 78% 0.7 mph N1.1 kmh N 3.1 mph5.0 kmh 29.78 in1008.5 mb 0.00 in0.0 mm 0.00 in/hr0.0 mm/hr 0.00 in0.0 mm
01:25 AM 57.9°F14.4°C 51.1°F10.6°C 78% Calm Calm 3.1 mph5.0 kmh 29.78 in1008.5 mb 0.00 in0.0 mm 0.00 in/hr0.0 mm/hr 0.00 in0.0 mm
01:30 AM 57.9°F14.4°C 51.1°F10.6°C 78% Calm Calm 3.1 mph5.0 kmh 29.79 in1008.8 mb 0.00 in0.0 mm 0.00 in/hr0.0 mm/hr 0.00 in0.0 mm
01:35 AM 57.9°F14.4°C 51.1°F10.6°C 78% 0.7 mph NNE1.1 kmh NNE 3.1 mph5.0 kmh 29.79 in1008.8 mb 0.00 in0.0 mm 0.00 in/hr0.0 mm/hr 0.00 in0.0 mm
01:40 AM 57.9°F14.4°C 51.1°F10.6°C 78% Calm Calm 2.2 mph3.5 kmh 29.79 in1008.8 mb 0.00 in0.0 mm 0.00 in/hr0.0 mm/hr 0.00 in0.0 mm
01:45 AM 57.7°F14.3°C 50.9°F10.5°C 78% Calm Calm 2.2 mph3.5 kmh 29.79 in1008.8 mb 0.00 in0.0 mm 0.00 in/hr0.0 mm/hr 0.00 in0.0 mm
01:50 AM 57.7°F14.3°C 50.9°F10.5°C 78% Calm Calm 2.2 mph3.5 kmh 29.78 in1008.5 mb 0.00 in0.0 mm 0.00 in/hr0.0 mm/hr 0.00 in0.0 mm
01:55 AM 57.7°F14.3°C 51.3°F10.7°C 79% Calm Calm 2.2 mph3.5 kmh 29.78 in1008.5 mb 0.00 in0.0 mm 0.00 in/hr0.0 mm/hr 0.00 in0.0 mm
02:00 AM 57.7°F14.3°C 51.3°F10.7°C 79% Calm Calm 2.2 mph3.5 kmh 29.78 in1008.5 mb 0.00 in0.0 mm 0.00 in/hr0.0 mm/hr 0.00 in0.0 mm
02:05 AM 57.7°F14.3°C 51.3°F10.7°C 79% Calm Calm 2.2 mph3.5 kmh 29.79 in1008.8 mb 0.00 in0.0 mm 0.00 in/hr0.0 mm/hr 0.00 in0.0 mm
02:10 AM 57.7°F14.3°C 51.3°F10.7°C 79% 0.7 mph NW1.1 kmh NW 3.8 mph6.1 kmh 29.79 in1008.8 mb 0.00 in0.0 mm 0.00 in/hr0.0 mm/hr 0.00 in0.0 mm
02:15 AM 57.6°F14.2°C 51.1°F10.6°C 79% 0.7 mph N1.1 kmh N 3.8 mph6.1 kmh 29.79 in1008.8 mb 0.00 in0.0 mm 0.00 in/hr0.0 mm/hr 0.00 in0.0 mm
02:20 AM 57.6°F14.2°C 51.4°F10.8°C 80% 0.7 mph NE1.1 kmh NE 3.8 mph6.1 kmh 29.79 in1008.8 mb 0.00 in0.0 mm 0.00 in/hr0.0 mm/hr 0.00 in0.0 mm
02:25 AM 57.6°F14.2°C 51.4°F10.8°C 80% Calm Calm 2.2 mph3.5 kmh 29.79 in1008.8 mb 0.00 in0.0 mm 0.00 in/hr0.0 mm/hr 0.00 in0.0 mm
02:30 AM 57.4°F14.1°C 51.3°F10.7°C 80% Calm Calm 2.2 mph3.5 kmh 29.79 in1008.8 mb 0.00 in0.0 mm 0.00 in/hr0.0 mm/hr 0.00 in0.0 mm
02:35 AM 57.2°F14.0°C 51.4°F10.8°C 81% 1.6 mph NE2.6 kmh NE 3.1 mph5.0 kmh 29.79 in1008.8 mb 0.00 in0.0 mm 0.00 in/hr0.0 mm/hr 0.00 in0.0 mm
02:40 AM 57.2°F14.0°C 51.4°F10.8°C 81% 0.7 mph NE1.1 kmh NE 3.1 mph5.0 kmh 29.79 in1008.8 mb 0.00 in0.0 mm 0.00 in/hr0.0 mm/hr 0.00 in0.0 mm
02:45 AM 57.0°F13.9°C 51.3°F10.7°C 81% Calm Calm 2.2 mph3.5 kmh 29.79 in1008.8 mb 0.00 in0.0 mm 0.00 in/hr0.0 mm/hr 0.00 in0.0 mm
02:50 AM 56.8°F13.8°C 51.4°F10.8°C 82% 0.7 mph ENE1.1 kmh ENE 2.2 mph3.5 kmh 29.78 in1008.5 mb 0.00 in0.0 mm 0.00 in/hr0.0 mm/hr 0.00 in0.0 mm
02:55 AM 56.7°F13.7°C 51.2°F10.7°C 82% Calm Calm 3.1 mph5.0 kmh 29.79 in1008.8 mb 0.00 in0.0 mm 0.00 in/hr0.0 mm/hr 0.00 in0.0 mm
03:00 AM 56.5°F13.6°C 51.4°F10.8°C 83% 0.7 mph NE1.1 kmh NE 3.1 mph5.0 kmh 29.78 in1008.5 mb 0.00 in0.0 mm 0.00 in/hr0.0 mm/hr 0.00 in0.0 mm
03:05 AM 56.5°F13.6°C 51.4°F10.8°C 83% 0.7 mph WSW1.1 kmh WSW 2.2 mph3.5 kmh 29.79 in1008.8 mb 0.00 in0.0 mm 0.00 in/hr0.0 mm/hr 0.00 in0.0 mm
03:10 AM 56.1°F13.4°C 51.0°F10.6°C 83% 0.7 mph WNW1.1 kmh WNW 2.2 mph3.5 kmh 29.79 in1008.8 mb 0.00 in0.0 mm 0.00 in/hr0.0 mm/hr 0.00 in0.0 mm
03:15 AM 55.9°F13.3°C 51.2°F10.7°C 84% Calm Calm 3.1 mph5.0 kmh 29.79 in1008.8 mb 0.00 in0.0 mm 0.00 in/hr0.0 mm/hr 0.00 in0.0 mm
03:20 AM 55.9°F13.3°C 51.2°F10.7°C 84% Calm Calm 3.1 mph5.0 kmh 29.79 in1008.8 mb 0.00 in0.0 mm 0.00 in/hr0.0 mm/hr 0.00 in0.0 mm
03:25 AM 55.8°F13.2°C 51.0°F10.6°C 84% 0.7 mph N1.1 kmh N 3.1 mph5.0 kmh 29.79 in1008.8 mb 0.00 in0.0 mm 0.00 in/hr0.0 mm/hr 0.00 in0.0 mm
03:30 AM 55.6°F13.1°C 51.2°F10.7°C 85% Calm Calm 2.2 mph3.5 kmh 29.79 in1008.8 mb 0.00 in0.0 mm 0.00 in/hr0.0 mm/hr 0.00 in0.0 mm
03:35 AM 55.6°F13.1°C 51.2°F10.7°C 85% 0.7 mph NE1.1 kmh NE 2.2 mph3.5 kmh 29.79 in1008.8 mb 0.00 in0.0 mm 0.00 in/hr0.0 mm/hr 0.00 in0.0 mm
03:40 AM 55.4°F13.0°C 51.0°F10.6°C 85% 0.7 mph NE1.1 kmh NE 1.6 mph2.6 kmh 29.79 in1008.8 mb 0.00 in0.0 mm 0.00 in/hr0.0 mm/hr 0.00 in0.0 mm
03:45 AM 55.2°F12.9°C 50.8°F10.4°C 85% Calm Calm 1.6 mph2.6 kmh 29.80 in1009.1 mb 0.00 in0.0 mm 0.00 in/hr0.0 mm/hr 0.00 in0.0 mm
03:50 AM 55.2°F12.9°C 51.1°F10.6°C 86% 0.7 mph NE1.1 kmh NE 2.2 mph3.5 kmh 29.79 in1008.8 mb 0.00 in0.0 mm 0.00 in/hr0.0 mm/hr 0.00 in0.0 mm
03:55 AM 55.0°F12.8°C 50.9°F10.5°C 86% 0.7 mph NE1.1 kmh NE 2.2 mph3.5 kmh 29.79 in1008.8 mb 0.00 in0.0 mm 0.00 in/hr0.0 mm/hr 0.00 in0.0 mm
04:00 AM 54.9°F12.7°C 50.8°F10.4°C 86% 0.7 mph NE1.1 kmh NE 2.2 mph3.5 kmh 29.80 in1009.1 mb 0.00 in0.0 mm 0.00 in/hr0.0 mm/hr 0.00 in0.0 mm
04:05 AM 54.9°F12.7°C 50.8°F10.4°C 86% 0.7 mph E1.1 kmh E 1.6 mph2.6 kmh 29.80 in1009.1 mb 0.00 in0.0 mm 0.00 in/hr0.0 mm/hr 0.00 in0.0 mm
04:10 AM 54.7°F12.6°C 50.9°F10.5°C 87% Calm Calm 1.6 mph2.6 kmh 29.79 in1008.8 mb 0.00 in0.0 mm 0.00 in/hr0.0 mm/hr 0.00 in0.0 mm
04:15 AM 54.7°F12.6°C 50.9°F10.5°C 87% 0.7 mph ENE1.1 kmh ENE 1.6 mph2.6 kmh 29.80 in1009.1 mb 0.00 in0.0 mm 0.00 in/hr0.0 mm/hr 0.00 in0.0 mm
04:20 AM 54.5°F12.5°C 51.0°F10.6°C 88% Calm Calm 2.2 mph3.5 kmh 29.80 in1009.1 mb 0.00 in0.0 mm 0.00 in/hr0.0 mm/hr 0.00 in0.0 mm
04:25 AM 54.3°F12.4°C 50.8°F10.4°C 88% 0.7 mph SE1.1 kmh SE 3.1 mph5.0 kmh 29.80 in1009.1 mb 0.00 in0.0 mm 0.00 in/hr0.0 mm/hr 0.00 in0.0 mm
04:30 AM 54.3°F12.4°C 50.8°F10.4°C 88% Calm Calm 3.1 mph5.0 kmh 29.80 in1009.1 mb 0.00 in0.0 mm 0.00 in/hr0.0 mm/hr 0.00 in0.0 mm
04:35 AM 54.3°F12.4°C 50.8°F10.4°C 88% Calm Calm 1.6 mph2.6 kmh 29.80 in1009.1 mb 0.00 in0.0 mm 0.00 in/hr0.0 mm/hr 0.00 in0.0 mm
04:40 AM 54.1°F12.3°C 51.0°F10.6°C 89% Calm Calm 1.6 mph2.6 kmh 29.81 in1009.5 mb 0.00 in0.0 mm 0.00 in/hr0.0 mm/hr 0.00 in0.0 mm
04:45 AM 54.1°F12.3°C 51.0°F10.6°C 89% Calm Calm 1.6 mph2.6 kmh 29.81 in1009.5 mb 0.00 in0.0 mm 0.00 in/hr0.0 mm/hr 0.00 in0.0 mm
04:50 AM 54.0°F12.2°C 50.8°F10.4°C 89% Calm Calm 1.6 mph2.6 kmh 29.80 in1009.1 mb 0.00 in0.0 mm 0.00 in/hr0.0 mm/hr 0.00 in0.0 mm
04:55 AM 54.0°F12.2°C 50.8°F10.4°C 89% Calm Calm 1.6 mph2.6 kmh 29.81 in1009.5 mb 0.00 in0.0 mm 0.00 in/hr0.0 mm/hr 0.00 in0.0 mm
05:00 AM 54.0°F12.2°C 50.8°F10.4°C 89% Calm Calm 2.2 mph3.5 kmh 29.81 in1009.5 mb 0.00 in0.0 mm 0.00 in/hr0.0 mm/hr 0.00 in0.0 mm
05:05 AM 54.0°F12.2°C 50.8°F10.4°C 89% Calm Calm 2.2 mph3.5 kmh 29.81 in1009.5 mb 0.00 in0.0 mm 0.00 in/hr0.0 mm/hr 0.00 in0.0 mm
05:10 AM 54.0°F12.2°C 51.1°F10.6°C 90% Calm Calm 1.6 mph2.6 kmh 29.81 in1009.5 mb 0.00 in0.0 mm 0.00 in/hr0.0 mm/hr 0.00 in0.0 mm
05:15 AM 54.1°F12.3°C 51.3°F10.7°C 90% 0.7 mph NW1.1 kmh NW 1.6 mph2.6 kmh 29.81 in1009.5 mb 0.00 in0.0 mm 0.00 in/hr0.0 mm/hr 0.00 in0.0 mm
05:20 AM 54.1°F12.3°C 51.3°F10.7°C 90% Calm Calm 1.6 mph2.6 kmh 29.81 in1009.5 mb 0.00 in0.0 mm 0.00 in/hr0.0 mm/hr 0.00 in0.0 mm
05:25 AM 54.1°F12.3°C 51.3°F10.7°C 90% Calm Calm 1.6 mph2.6 kmh 29.81 in1009.5 mb 0.00 in0.0 mm 0.00 in/hr0.0 mm/hr 0.00 in0.0 mm
05:30 AM 54.3°F12.4°C 51.8°F11.0°C 91% 0.7 mph ESE1.1 kmh ESE 1.6 mph2.6 kmh 29.81 in1009.5 mb 0.00 in0.0 mm 0.00 in/hr0.0 mm/hr 0.00 in0.0 mm
05:35 AM 54.3°F12.4°C 51.8°F11.0°C 91% Calm Calm 1.6 mph2.6 kmh 29.81 in1009.5 mb 0.00 in0.0 mm 0.00 in/hr0.0 mm/hr 0.00 in0.0 mm
05:40 AM 54.3°F12.4°C 51.8°F11.0°C 91% Calm Calm 1.6 mph2.6 kmh 29.82 in1009.8 mb 0.00 in0.0 mm 0.00 in/hr0.0 mm/hr 0.00 in0.0 mm
05:45 AM 54.5°F12.5°C 51.9°F11.1°C 91% Calm Calm 1.6 mph2.6 kmh 29.81 in1009.5 mb 0.00 in0.0 mm 0.00 in/hr0.0 mm/hr 0.00 in0.0 mm
05:50 AM 54.5°F12.5°C 51.9°F11.1°C 91% Calm Calm 1.6 mph2.6 kmh 29.81 in1009.5 mb 0.00 in0.0 mm 0.00 in/hr0.0 mm/hr 0.00 in0.0 mm
05:55 AM 54.7°F12.6°C 52.1°F11.2°C 91% Calm Calm 3.1 mph5.0 kmh 29.82 in1009.8 mb 0.00 in0.0 mm 0.00 in/hr0.0 mm/hr 0.00 in0.0 mm
06:00 AM 54.9°F12.7°C 52.3°F11.3°C 91% Calm Calm 3.1 mph5.0 kmh 29.82 in1009.8 mb 0.00 in0.0 mm 0.00 in/hr0.0 mm/hr 0.00 in0.0 mm
06:05 AM 54.9°F12.7°C 52.3°F11.3°C 91% Calm Calm 1.6 mph2.6 kmh 29.82 in1009.8 mb 0.00 in0.0 mm 0.00 in/hr0.0 mm/hr 0.00 in0.0 mm
06:10 AM 55.2°F12.9°C 52.6°F11.4°C 91% Calm Calm 1.6 mph2.6 kmh 29.82 in1009.8 mb 0.00 in0.0 mm 0.00 in/hr0.0 mm/hr 0.00 in0.0 mm
06:15 AM 55.2°F12.9°C 52.6°F11.4°C 91% Calm Calm 2.2 mph3.5 kmh 29.82 in1009.8 mb 0.00 in0.0 mm 0.00 in/hr0.0 mm/hr 0.00 in0.0 mm
06:20 AM 55.4°F13.0°C 52.8°F11.6°C 91% 0.7 mph E1.1 kmh E 3.8 mph6.1 kmh 29.82 in1009.8 mb 0.00 in0.0 mm 0.00 in/hr0.0 mm/hr 0.00 in0.0 mm
06:25 AM 55.6°F13.1°C 53.0°F11.7°C 91% 0.7 mph NNE1.1 kmh NNE 3.8 mph6.1 kmh 29.82 in1009.8 mb 0.00 in0.0 mm 0.00 in/hr0.0 mm/hr 0.00 in0.0 mm
06:30 AM 55.8°F13.2°C 53.2°F11.8°C 91% 0.7 mph N1.1 kmh N 3.1 mph5.0 kmh 29.82 in1009.8 mb 0.00 in0.0 mm 0.00 in/hr0.0 mm/hr 0.00 in0.0 mm
06:35 AM 55.8°F13.2°C 53.2°F11.8°C 91% Calm Calm 3.1 mph5.0 kmh 29.82 in1009.8 mb 0.00 in0.0 mm 0.00 in/hr0.0 mm/hr 0.00 in0.0 mm
06:40 AM 55.9°F13.3°C 53.4°F11.9°C 91% Calm Calm 3.1 mph5.0 kmh 29.82 in1009.8 mb 0.00 in0.0 mm 0.00 in/hr0.0 mm/hr 0.00 in0.0 mm
06:45 AM 56.1°F13.4°C 53.5°F11.9°C 91% 0.7 mph NNE1.1 kmh NNE 2.2 mph3.5 kmh 29.82 in1009.8 mb 0.00 in0.0 mm 0.00 in/hr0.0 mm/hr 0.00 in0.0 mm
06:50 AM 56.5°F13.6°C 53.9°F12.2°C 91% 0.7 mph NE1.1 kmh NE 3.1 mph5.0 kmh 29.82 in1009.8 mb 0.00 in0.0 mm 0.00 in/hr0.0 mm/hr 0.00 in0.0 mm
06:55 AM 56.5°F13.6°C 53.6°F12.0°C 90% Calm Calm 3.1 mph5.0 kmh 29.82 in1009.8 mb 0.00 in0.0 mm 0.00 in/hr0.0 mm/hr 0.00 in0.0 mm
07:00 AM 56.8°F13.8°C 53.9°F12.2°C 90% Calm Calm 2.2 mph3.5 kmh 29.82 in1009.8 mb 0.00 in0.0 mm 0.00 in/hr0.0 mm/hr 0.00 in0.0 mm
07:05 AM 56.8°F13.8°C 53.9°F12.2°C 90% Calm Calm 1.6 mph2.6 kmh 29.82 in1009.8 mb 0.00 in0.0 mm 0.00 in/hr0.0 mm/hr 0.00 in0.0 mm
07:10 AM 57.4°F14.1°C 54.2°F12.3°C 89% 0.7 mph NE1.1 kmh NE 3.1 mph5.0 kmh 29.82 in1009.8 mb 0.00 in0.0 mm 0.00 in/hr0.0 mm/hr 0.00 in0.0 mm
07:15 AM 57.6°F14.2°C 54.4°F12.4°C 89% Calm Calm 3.1 mph5.0 kmh 29.82 in1009.8 mb 0.00 in0.0 mm 0.00 in/hr0.0 mm/hr 0.00 in0.0 mm
07:20 AM 57.9°F14.4°C 54.4°F12.4°C 88% Calm Calm 3.8 mph6.1 kmh 29.82 in1009.8 mb 0.00 in0.0 mm 0.00 in/hr0.0 mm/hr 0.00 in0.0 mm
07:25 AM 58.1°F14.5°C 54.6°F12.6°C 88% Calm Calm 3.8 mph6.1 kmh 29.82 in1009.8 mb 0.00 in0.0 mm 0.00 in/hr0.0 mm/hr 0.00 in0.0 mm
07:30 AM 58.6°F14.8°C 55.1°F12.8°C 88% 0.7 mph N1.1 kmh N 3.8 mph6.1 kmh 29.82 in1009.8 mb 0.00 in0.0 mm 0.00 in/hr0.0 mm/hr 0.00 in0.0 mm
07:35 AM 59.2°F15.1°C 55.3°F12.9°C 87% 0.7 mph N1.1 kmh N 2.2 mph3.5 kmh 29.83 in1010.2 mb 0.00 in0.0 mm 0.00 in/hr0.0 mm/hr 0.00 in0.0 mm
07:40 AM 59.5°F15.3°C 55.4°F13.0°C 86% 0.7 mph W1.1 kmh W 3.1 mph5.0 kmh 29.82 in1009.8 mb 0.00 in0.0 mm 0.00 in/hr0.0 mm/hr 0.00 in0.0 mm
07:45 AM 59.9°F15.5°C 55.4°F13.0°C 85% Calm Calm 3.8 mph6.1 kmh 29.83 in1010.2 mb 0.00 in0.0 mm 0.00 in/hr0.0 mm/hr 0.00 in0.0 mm
07:50 AM 60.3°F15.7°C 55.4°F13.0°C 84% 2.2 mph SW3.5 kmh SW 6.0 mph9.7 kmh 29.83 in1010.2 mb 0.00 in0.0 mm 0.00 in/hr0.0 mm/hr 0.00 in0.0 mm
07:55 AM 60.6°F15.9°C 55.4°F13.0°C 83% 1.6 mph NNE2.6 kmh NNE 6.0 mph9.7 kmh 29.83 in1010.2 mb 0.00 in0.0 mm 0.00 in/hr0.0 mm/hr 0.00 in0.0 mm
08:00 AM 61.0°F16.1°C 55.8°F13.2°C 83% 2.2 mph NW3.5 kmh NW 6.0 mph9.7 kmh 29.83 in1010.2 mb 0.00 in0.0 mm 0.00 in/hr0.0 mm/hr 0.00 in0.0 mm
08:05 AM 61.0°F16.1°C 55.8°F13.2°C 83% 2.2 mph NW3.5 kmh NW 3.8 mph6.1 kmh 29.83 in1010.2 mb 0.00 in0.0 mm 0.00 in/hr0.0 mm/hr 0.00 in0.0 mm
08:10 AM 61.2°F16.2°C 55.3°F12.9°C 81% 1.6 mph NW2.6 kmh NW 3.8 mph6.1 kmh 29.83 in1010.2 mb 0.00 in0.0 mm 0.00 in/hr0.0 mm/hr 0.00 in0.0 mm
08:15 AM 61.3°F16.3°C 55.1°F12.8°C 80% 0.7 mph NW1.1 kmh NW 6.0 mph9.7 kmh 29.83 in1010.2 mb 0.00 in0.0 mm 0.00 in/hr0.0 mm/hr 0.00 in0.0 mm
08:20 AM 61.5°F16.4°C 55.3°F12.9°C 80% 1.6 mph NW2.6 kmh NW 6.0 mph9.7 kmh 29.83 in1010.2 mb 0.00 in0.0 mm 0.00 in/hr0.0 mm/hr 0.00 in0.0 mm
08:25 AM 61.9°F16.6°C 55.3°F12.9°C 79% 2.2 mph WSW3.5 kmh WSW 5.4 mph8.7 kmh 29.83 in1010.2 mb 0.00 in0.0 mm 0.00 in/hr0.0 mm/hr 0.00 in0.0 mm
08:30 AM 62.2°F16.8°C 55.3°F12.9°C 78% 0.7 mph WSW1.1 kmh WSW 5.4 mph8.7 kmh 29.83 in1010.2 mb 0.00 in0.0 mm 0.00 in/hr0.0 mm/hr 0.00 in0.0 mm
08:35 AM 62.6°F17.0°C 54.9°F12.7°C 76% 0.7 mph WNW1.1 kmh WNW 5.4 mph8.7 kmh 29.83 in1010.2 mb 0.00 in0.0 mm 0.00 in/hr0.0 mm/hr 0.00 in0.0 mm
08:40 AM 63.0°F17.2°C 55.3°F12.9°C 76% 1.6 mph W2.6 kmh W 5.4 mph8.7 kmh 29.83 in1010.2 mb 0.00 in0.0 mm 0.00 in/hr0.0 mm/hr 0.00 in0.0 mm
08:45 AM 63.5°F17.5°C 55.1°F12.8°C 74% 0.7 mph WSW1.1 kmh WSW 4.5 mph7.2 kmh 29.83 in1010.2 mb 0.00 in0.0 mm 0.00 in/hr0.0 mm/hr 0.00 in0.0 mm
08:50 AM 64.2°F17.9°C 55.4°F13.0°C 73% 1.6 mph WSW2.6 kmh WSW 4.5 mph7.2 kmh 29.83 in1010.2 mb 0.00 in0.0 mm 0.00 in/hr0.0 mm/hr 0.00 in0.0 mm
08:55 AM 64.8°F18.2°C 55.2°F12.9°C 71% 3.1 mph WSW5.0 kmh WSW 6.0 mph9.7 kmh 29.83 in1010.2 mb 0.00 in0.0 mm 0.00 in/hr0.0 mm/hr 0.00 in0.0 mm
09:00 AM 65.1°F18.4°C 55.1°F12.8°C 70% 0.7 mph WSW1.1 kmh WSW 7.6 mph12.2 kmh 29.83 in1010.2 mb 0.00 in0.0 mm 0.00 in/hr0.0 mm/hr 0.00 in0.0 mm
09:05 AM 65.1°F18.4°C 55.1°F12.8°C 70% 0.7 mph WNW1.1 kmh WNW 7.6 mph12.2 kmh 29.83 in1010.2 mb 0.00 in0.0 mm 0.00 in/hr0.0 mm/hr 0.00 in0.0 mm
09:10 AM 65.3°F18.5°C 54.9°F12.7°C 69% Calm Calm 3.8 mph6.1 kmh 29.83 in1010.2 mb 0.00 in0.0 mm 0.00 in/hr0.0 mm/hr 0.00 in0.0 mm
09:15 AM 65.5°F18.6°C 54.7°F12.6°C 68% 2.2 mph E3.5 kmh E 6.9 mph11.1 kmh 29.83 in1010.2 mb 0.00 in0.0 mm 0.00 in/hr0.0 mm/hr 0.00 in0.0 mm
09:20 AM 65.5°F18.6°C 54.3°F12.4°C 67% 4.5 mph E7.2 kmh E 8.3 mph13.4 kmh 29.83 in1010.2 mb 0.00 in0.0 mm 0.00 in/hr0.0 mm/hr 0.00 in0.0 mm
09:25 AM 65.3°F18.5°C 54.1°F12.3°C 67% 1.6 mph SE2.6 kmh SE 8.3 mph13.4 kmh 29.83 in1010.2 mb 0.00 in0.0 mm 0.00 in/hr0.0 mm/hr 0.00 in0.0 mm
09:30 AM 65.5°F18.6°C 54.3°F12.4°C 67% 1.6 mph SE2.6 kmh SE 9.8 mph15.8 kmh 29.83 in1010.2 mb 0.00 in0.0 mm 0.00 in/hr0.0 mm/hr 0.00 in0.0 mm
09:35 AM 65.8°F18.8°C 54.2°F12.3°C 66% 1.6 mph E2.6 kmh E 9.8 mph15.8 kmh 29.83 in1010.2 mb 0.00 in0.0 mm 0.00 in/hr0.0 mm/hr 0.00 in0.0 mm
09:40 AM 66.0°F18.9°C 53.5°F11.9°C 64% 2.2 mph SE3.5 kmh SE 7.6 mph12.2 kmh 29.83 in1010.2 mb 0.00 in0.0 mm 0.00 in/hr0.0 mm/hr 0.00 in0.0 mm
09:45 AM 66.4°F19.1°C 53.4°F11.9°C 63% 1.6 mph SE2.6 kmh SE 5.4 mph8.7 kmh 29.83 in1010.2 mb 0.00 in0.0 mm 0.00 in/hr0.0 mm/hr 0.00 in0.0 mm
09:50 AM 66.7°F19.3°C 53.3°F11.8°C 62% 1.6 mph NE2.6 kmh NE 6.0 mph9.7 kmh 29.82 in1009.8 mb 0.00 in0.0 mm 0.00 in/hr0.0 mm/hr 0.00 in0.0 mm
09:55 AM 67.3°F19.6°C 53.4°F11.9°C 61% 4.5 mph WSW7.2 kmh WSW 7.6 mph12.2 kmh 29.83 in1010.2 mb 0.00 in0.0 mm 0.00 in/hr0.0 mm/hr 0.00 in0.0 mm
10:00 AM 67.5°F19.7°C 52.7°F11.5°C 59% 2.2 mph W3.5 kmh W 9.2 mph14.8 kmh 29.82 in1009.8 mb 0.00 in0.0 mm 0.00 in/hr0.0 mm/hr 0.00 in0.0 mm
10:05 AM 67.5°F19.7°C 52.7°F11.5°C 59% 2.2 mph W3.5 kmh W 9.2 mph14.8 kmh 29.82 in1009.8 mb 0.00 in0.0 mm 0.00 in/hr0.0 mm/hr 0.00 in0.0 mm
10:10 AM 67.5°F19.7°C 51.7°F10.9°C 57% 0.7 mph W1.1 kmh W 8.3 mph13.4 kmh 29.83 in1010.2 mb 0.00 in0.0 mm 0.00 in/hr0.0 mm/hr 0.00 in0.0 mm
10:15 AM 67.8°F19.9°C 52.1°F11.2°C 57% 1.6 mph SW2.6 kmh SW 8.3 mph13.4 kmh 29.82 in1009.8 mb 0.00 in0.0 mm 0.00 in/hr0.0 mm/hr 0.00 in0.0 mm
10:20 AM 68.2°F20.1°C 51.9°F11.1°C 56% 2.2 mph S3.5 kmh S 9.8 mph15.8 kmh 29.82 in1009.8 mb 0.00 in0.0 mm 0.00 in/hr0.0 mm/hr 0.00 in0.0 mm
10:25 AM 68.5°F20.3°C 51.3°F10.7°C 54% 1.6 mph SW2.6 kmh SW 9.8 mph15.8 kmh 29.82 in1009.8 mb 0.00 in0.0 mm 0.00 in/hr0.0 mm/hr 0.00 in0.0 mm
10:30 AM 68.5°F20.3°C 50.8°F10.4°C 53% 3.1 mph WSW5.0 kmh WSW 6.0 mph9.7 kmh 29.82 in1009.8 mb 0.00 in0.0 mm 0.00 in/hr0.0 mm/hr 0.00 in0.0 mm
10:35 AM 68.9°F20.5°C 50.6°F10.3°C 52% 3.8 mph WSW6.1 kmh WSW 6.0 mph9.7 kmh 29.82 in1009.8 mb 0.00 in0.0 mm 0.00 in/hr0.0 mm/hr 0.00 in0.0 mm
10:40 AM 69.3°F20.7°C 50.4°F10.2°C 51% 3.8 mph SW6.1 kmh SW 8.3 mph13.4 kmh 29.82 in1009.8 mb 0.00 in0.0 mm 0.00 in/hr0.0 mm/hr 0.00 in0.0 mm
10:45 AM 69.4°F20.8°C 50.0°F10.0°C 50% 1.6 mph ESE2.6 kmh ESE 8.3 mph13.4 kmh 29.82 in1009.8 mb 0.00 in0.0 mm 0.00 in/hr0.0 mm/hr 0.00 in0.0 mm
10:50 AM 69.4°F20.8°C 48.9°F9.4°C 48% 1.6 mph NNE2.6 kmh NNE 8.3 mph13.4 kmh 29.82 in1009.8 mb 0.00 in0.0 mm 0.00 in/hr0.0 mm/hr 0.00 in0.0 mm
10:55 AM 68.9°F20.5°C 48.4°F9.1°C 48% 2.2 mph NW3.5 kmh NW 6.0 mph9.7 kmh 29.82 in1009.8 mb 0.00 in0.0 mm 0.00 in/hr0.0 mm/hr 0.00 in0.0 mm
11:00 AM 68.7°F20.4°C 48.8°F9.3°C 49% 1.6 mph S2.6 kmh S 8.3 mph13.4 kmh 29.83 in1010.2 mb 0.00 in0.0 mm 0.00 in/hr0.0 mm/hr 0.00 in0.0 mm
11:05 AM 68.7°F20.4°C 48.8°F9.3°C 49% 1.6 mph W2.6 kmh W 8.3 mph13.4 kmh 29.83 in1010.2 mb 0.00 in0.0 mm 0.00 in/hr0.0 mm/hr 0.00 in0.0 mm
11:10 AM 69.1°F20.6°C 48.0°F8.9°C 47% 5.4 mph W8.7 kmh W 13.0 mph20.9 kmh 29.83 in1010.2 mb 0.00 in0.0 mm 0.00 in/hr0.0 mm/hr 0.00 in0.0 mm
11:15 AM 68.5°F20.3°C 47.0°F8.3°C 46% 1.6 mph W2.6 kmh W 13.0 mph20.9 kmh 29.83 in1010.2 mb 0.00 in0.0 mm 0.00 in/hr0.0 mm/hr 0.00 in0.0 mm
11:20 AM 68.0°F20.0°C 47.0°F8.3°C 47% 3.1 mph W5.0 kmh W 13.0 mph20.9 kmh 29.83 in1010.2 mb 0.00 in0.0 mm 0.00 in/hr0.0 mm/hr 0.00 in0.0 mm
11:25 AM 67.5°F19.7°C 46.0°F7.8°C 46% 3.8 mph SSW6.1 kmh SSW 13.0 mph20.9 kmh 29.83 in1010.2 mb 0.00 in0.0 mm 0.00 in/hr0.0 mm/hr 0.00 in0.0 mm
11:30 AM 67.1°F19.5°C 46.2°F7.9°C 47% 2.2 mph SSW3.5 kmh SSW 13.0 mph20.9 kmh 29.83 in1010.2 mb 0.00 in0.0 mm 0.00 in/hr0.0 mm/hr 0.00 in0.0 mm
11:35 AM 66.9°F19.4°C 46.6°F8.1°C 48% 2.2 mph SW3.5 kmh SW 7.6 mph12.2 kmh 29.83 in1010.2 mb 0.00 in0.0 mm 0.00 in/hr0.0 mm/hr 0.00 in0.0 mm
11:40 AM 66.9°F19.4°C 46.6°F8.1°C 48% 2.2 mph SW3.5 kmh SW 7.6 mph12.2 kmh 29.83 in1010.2 mb 0.00 in0.0 mm 0.00 in/hr0.0 mm/hr 0.00 in0.0 mm
11:45 AM 67.5°F19.7°C 47.7°F8.7°C 49% 3.8 mph WSW6.1 kmh WSW 8.3 mph13.4 kmh 29.83 in1010.2 mb 0.00 in0.0 mm 0.00 in/hr0.0 mm/hr 0.00 in0.0 mm
11:50 AM 68.2°F20.1°C 48.3°F9.1°C 49% 3.1 mph WSW5.0 kmh WSW 8.3 mph13.4 kmh 29.83 in1010.2 mb 0.00 in0.0 mm 0.00 in/hr0.0 mm/hr 0.00 in0.0 mm
11:55 AM 69.1°F20.6°C 48.0°F8.9°C 47% 3.1 mph W5.0 kmh W 6.9 mph11.1 kmh 29.82 in1009.8 mb 0.00 in0.0 mm 0.00 in/hr0.0 mm/hr 0.00 in0.0 mm
12:00 PM 69.8°F21.0°C 48.1°F8.9°C 46% 1.6 mph NW2.6 kmh NW 6.0 mph9.7 kmh 29.82 in1009.8 mb 0.00 in0.0 mm 0.00 in/hr0.0 mm/hr 0.00 in0.0 mm
12:05 PM 69.8°F21.0°C 48.1°F8.9°C 46% 1.6 mph NNW2.6 kmh NNW 6.0 mph9.7 kmh 29.82 in1009.8 mb 0.00 in0.0 mm 0.00 in/hr0.0 mm/hr 0.00 in0.0 mm
12:10 PM 70.3°F21.3°C 48.6°F9.2°C 46% 1.6 mph NW2.6 kmh NW 4.5 mph7.2 kmh 29.82 in1009.8 mb 0.00 in0.0 mm 0.00 in/hr0.0 mm/hr 0.00 in0.0 mm
12:15 PM 70.3°F21.3°C 48.0°F8.9°C 45% 2.2 mph W3.5 kmh W 6.9 mph11.1 kmh 29.82 in1009.8 mb 0.00 in0.0 mm 0.00 in/hr0.0 mm/hr 0.00 in0.0 mm
12:20 PM 70.5°F21.4°C 47.6°F8.7°C 44% 1.6 mph WSW2.6 kmh WSW 7.6 mph12.2 kmh 29.82 in1009.8 mb 0.00 in0.0 mm 0.00 in/hr0.0 mm/hr 0.00 in0.0 mm
12:25 PM 70.9°F21.6°C 47.3°F8.5°C 43% 2.2 mph WNW3.5 kmh WNW 7.6 mph12.2 kmh 29.83 in1010.2 mb 0.00 in0.0 mm 0.00 in/hr0.0 mm/hr 0.00 in0.0 mm
12:30 PM 70.3°F21.3°C 46.2°F7.9°C 42% 3.1 mph W5.0 kmh W 9.2 mph14.8 kmh 29.83 in1010.2 mb 0.00 in0.0 mm 0.00 in/hr0.0 mm/hr 0.00 in0.0 mm
12:35 PM 70.3°F21.3°C 46.2°F7.9°C 42% 3.8 mph W6.1 kmh W 9.2 mph14.8 kmh 29.83 in1010.2 mb 0.00 in0.0 mm 0.00 in/hr0.0 mm/hr 0.00 in0.0 mm
12:40 PM 70.2°F21.2°C 46.0°F7.8°C 42% 0.7 mph WSW1.1 kmh WSW 7.6 mph12.2 kmh 29.82 in1009.8 mb 0.00 in0.0 mm 0.00 in/hr0.0 mm/hr 0.00 in0.0 mm
12:45 PM 70.3°F21.3°C 46.2°F7.9°C 42% 3.1 mph SSW5.0 kmh SSW 8.3 mph13.4 kmh 29.82 in1009.8 mb 0.00 in0.0 mm 0.00 in/hr0.0 mm/hr 0.00 in0.0 mm
12:50 PM 70.3°F21.3°C 46.2°F7.9°C 42% 1.6 mph ENE2.6 kmh ENE 8.3 mph13.4 kmh 29.82 in1009.8 mb 0.00 in0.0 mm 0.00 in/hr0.0 mm/hr 0.00 in0.0 mm
12:55 PM 70.0°F21.1°C 45.9°F7.7°C 42% 3.1 mph W5.0 kmh W 7.6 mph12.2 kmh 29.82 in1009.8 mb 0.00 in0.0 mm 0.00 in/hr0.0 mm/hr 0.00 in0.0 mm
01:00 PM 70.2°F21.2°C 46.6°F8.1°C 43% 3.8 mph WSW6.1 kmh WSW 9.2 mph14.8 kmh 29.82 in1009.8 mb 0.00 in0.0 mm 0.00 in/hr0.0 mm/hr 0.00 in0.0 mm
01:05 PM 70.2°F21.2°C 46.6°F8.1°C 43% 3.8 mph WSW6.1 kmh WSW 9.2 mph14.8 kmh 29.81 in1009.5 mb 0.00 in0.0 mm 0.00 in/hr0.0 mm/hr 0.00 in0.0 mm
01:10 PM 70.5°F21.4°C 46.3°F7.9°C 42% 2.2 mph SW3.5 kmh SW 6.0 mph9.7 kmh 29.82 in1009.8 mb 0.00 in0.0 mm 0.00 in/hr0.0 mm/hr 0.00 in0.0 mm
01:15 PM 70.5°F21.4°C 45.7°F7.6°C 41% 1.6 mph SW2.6 kmh SW 6.9 mph11.1 kmh 29.81 in1009.5 mb 0.00 in0.0 mm 0.00 in/hr0.0 mm/hr 0.00 in0.0 mm
01:20 PM 70.9°F21.6°C 46.0°F7.8°C 41% 1.6 mph S2.6 kmh S 6.9 mph11.1 kmh 29.81 in1009.5 mb 0.00 in0.0 mm 0.00 in/hr0.0 mm/hr 0.00 in0.0 mm
01:25 PM 70.9°F21.6°C 45.4°F7.4°C 40% 3.8 mph WSW6.1 kmh WSW 7.6 mph12.2 kmh 29.81 in1009.5 mb 0.00 in0.0 mm 0.00 in/hr0.0 mm/hr 0.00 in0.0 mm
01:30 PM 71.2°F21.8°C 45.7°F7.6°C 40% 2.2 mph WSW3.5 kmh WSW 7.6 mph12.2 kmh 29.81 in1009.5 mb 0.00 in0.0 mm 0.00 in/hr0.0 mm/hr 0.00 in0.0 mm
01:35 PM 71.4°F21.9°C 45.9°F7.7°C 40% 0.7 mph SW1.1 kmh SW 7.6 mph12.2 kmh 29.81 in1009.5 mb 0.00 in0.0 mm 0.00 in/hr0.0 mm/hr 0.00 in0.0 mm
01:40 PM 72.0°F22.2°C 45.7°F7.6°C 39% 2.2 mph SW3.5 kmh SW 7.6 mph12.2 kmh 29.82 in1009.8 mb 0.00 in0.0 mm 0.00 in/hr0.0 mm/hr 0.00 in0.0 mm
01:45 PM 72.1°F22.3°C 45.8°F7.7°C 39% 1.6 mph W2.6 kmh W 4.5 mph7.2 kmh 29.81 in1009.5 mb 0.00 in0.0 mm 0.00 in/hr0.0 mm/hr 0.00 in0.0 mm
01:50 PM 72.3°F22.4°C 45.3°F7.4°C 38% 1.6 mph W2.6 kmh W 9.2 mph14.8 kmh 29.81 in1009.5 mb 0.00 in0.0 mm 0.00 in/hr0.0 mm/hr 0.00 in0.0 mm
01:55 PM 72.7°F22.6°C 45.6°F7.6°C 38% 1.6 mph W2.6 kmh W 9.2 mph14.8 kmh 29.82 in1009.8 mb 0.00 in0.0 mm 0.00 in/hr0.0 mm/hr 0.00 in0.0 mm
02:00 PM 72.9°F22.7°C 45.1°F7.3°C 37% 2.2 mph E3.5 kmh E 6.0 mph9.7 kmh 29.81 in1009.5 mb 0.00 in0.0 mm 0.00 in/hr0.0 mm/hr 0.00 in0.0 mm
02:05 PM 72.9°F22.7°C 45.1°F7.3°C 37% 2.2 mph E3.5 kmh E 6.0 mph9.7 kmh 29.81 in1009.5 mb 0.00 in0.0 mm 0.00 in/hr0.0 mm/hr 0.00 in0.0 mm
02:10 PM 72.9°F22.7°C 45.1°F7.3°C 37% 1.6 mph ESE2.6 kmh ESE 7.6 mph12.2 kmh 29.81 in1009.5 mb 0.00 in0.0 mm 0.00 in/hr0.0 mm/hr 0.00 in0.0 mm
02:15 PM 72.1°F22.3°C 44.5°F6.9°C 37% 3.1 mph SSW5.0 kmh SSW 7.6 mph12.2 kmh 29.81 in1009.5 mb 0.00 in0.0 mm 0.00 in/hr0.0 mm/hr 0.00 in0.0 mm
02:20 PM 71.8°F22.1°C 44.8°F7.1°C 38% 0.7 mph WSW1.1 kmh WSW 6.9 mph11.1 kmh 29.81 in1009.5 mb 0.00 in0.0 mm 0.00 in/hr0.0 mm/hr 0.00 in0.0 mm
02:25 PM 71.8°F22.1°C 44.8°F7.1°C 38% 3.1 mph WSW5.0 kmh WSW 6.9 mph11.1 kmh 29.81 in1009.5 mb 0.00 in0.0 mm 0.00 in/hr0.0 mm/hr 0.00 in0.0 mm
02:30 PM 72.0°F22.2°C 44.3°F6.8°C 37% 0.7 mph S1.1 kmh S 7.6 mph12.2 kmh 29.80 in1009.1 mb 0.00 in0.0 mm 0.00 in/hr0.0 mm/hr 0.00 in0.0 mm
02:35 PM 72.0°F22.2°C 43.6°F6.4°C 36% 0.7 mph SW1.1 kmh SW 7.6 mph12.2 kmh 29.80 in1009.1 mb 0.00 in0.0 mm 0.00 in/hr0.0 mm/hr 0.00 in0.0 mm
02:40 PM 72.0°F22.2°C 44.3°F6.8°C 37% 1.6 mph ESE2.6 kmh ESE 6.9 mph11.1 kmh 29.80 in1009.1 mb 0.00 in0.0 mm 0.00 in/hr0.0 mm/hr 0.00 in0.0 mm
02:45 PM 72.3°F22.4°C 44.6°F7.0°C 37% 2.2 mph ESE3.5 kmh ESE 10.7 mph17.2 kmh 29.80 in1009.1 mb 0.00 in0.0 mm 0.00 in/hr0.0 mm/hr 0.00 in0.0 mm
02:50 PM 72.9°F22.7°C 44.4°F6.9°C 36% 1.6 mph E2.6 kmh E 10.7 mph17.2 kmh 29.81 in1009.5 mb 0.00 in0.0 mm 0.00 in/hr0.0 mm/hr 0.00 in0.0 mm
02:55 PM 72.9°F22.7°C 43.6°F6.4°C 35% 2.2 mph ENE3.5 kmh ENE 6.0 mph9.7 kmh 29.81 in1009.5 mb 0.00 in0.0 mm 0.00 in/hr0.0 mm/hr 0.00 in0.0 mm
03:00 PM 72.7°F22.6°C 44.2°F6.8°C 36% 0.7 mph S1.1 kmh S 6.0 mph9.7 kmh 29.80 in1009.1 mb 0.00 in0.0 mm 0.00 in/hr0.0 mm/hr 0.00 in0.0 mm
03:05 PM 72.7°F22.6°C 44.2°F6.8°C 36% 0.7 mph SE1.1 kmh SE 4.5 mph7.2 kmh 29.80 in1009.1 mb 0.00 in0.0 mm 0.00 in/hr0.0 mm/hr 0.00 in0.0 mm
03:10 PM 72.3°F22.4°C 44.6°F7.0°C 37% 3.8 mph SE6.1 kmh SE 6.9 mph11.1 kmh 29.80 in1009.1 mb 0.00 in0.0 mm 0.00 in/hr0.0 mm/hr 0.00 in0.0 mm
03:15 PM 72.3°F22.4°C 43.9°F6.6°C 36% 2.2 mph SE3.5 kmh SE 7.6 mph12.2 kmh 29.80 in1009.1 mb 0.00 in0.0 mm 0.00 in/hr0.0 mm/hr 0.00 in0.0 mm
03:20 PM 72.5°F22.5°C 44.1°F6.7°C 36% 1.6 mph NW2.6 kmh NW 7.6 mph12.2 kmh 29.80 in1009.1 mb 0.00 in0.0 mm 0.00 in/hr0.0 mm/hr 0.00 in0.0 mm
03:25 PM 72.5°F22.5°C 44.8°F7.1°C 37% 0.7 mph WSW1.1 kmh WSW 6.9 mph11.1 kmh 29.80 in1009.1 mb 0.00 in0.0 mm 0.00 in/hr0.0 mm/hr 0.00 in0.0 mm
03:30 PM 72.7°F22.6°C 45.6°F7.6°C 38% 0.7 mph W1.1 kmh W 3.8 mph6.1 kmh 29.80 in1009.1 mb 0.00 in0.0 mm 0.00 in/hr0.0 mm/hr 0.00 in0.0 mm
03:35 PM 73.0°F22.8°C 45.3°F7.4°C 37% Calm Calm 4.5 mph7.2 kmh 29.79 in1008.8 mb 0.00 in0.0 mm 0.00 in/hr0.0 mm/hr 0.00 in0.0 mm
03:40 PM 73.2°F22.9°C 44.7°F7.1°C 36% 0.7 mph W1.1 kmh W 4.5 mph7.2 kmh 29.80 in1009.1 mb 0.00 in0.0 mm 0.00 in/hr0.0 mm/hr 0.00 in0.0 mm
03:45 PM 73.6°F23.1°C 45.7°F7.6°C 37% 1.6 mph WSW2.6 kmh WSW 3.8 mph6.1 kmh 29.80 in1009.1 mb 0.00 in0.0 mm 0.00 in/hr0.0 mm/hr 0.00 in0.0 mm
03:50 PM 73.9°F23.3°C 46.1°F7.8°C 37% Calm Calm 6.0 mph9.7 kmh 29.80 in1009.1 mb 0.00 in0.0 mm 0.00 in/hr0.0 mm/hr 0.00 in0.0 mm
03:55 PM 74.3°F23.5°C 45.6°F7.6°C 36% 1.6 mph WSW2.6 kmh WSW 6.0 mph9.7 kmh 29.80 in1009.1 mb 0.00 in0.0 mm 0.00 in/hr0.0 mm/hr 0.00 in0.0 mm
04:00 PM 74.1°F23.4°C 44.7°F7.1°C 35% 1.6 mph WSW2.6 kmh WSW 5.4 mph8.7 kmh 29.80 in1009.1 mb 0.00 in0.0 mm 0.00 in/hr0.0 mm/hr 0.00 in0.0 mm
04:05 PM 74.1°F23.4°C 44.7°F7.1°C 35% 1.6 mph NE2.6 kmh NE 3.8 mph6.1 kmh 29.80 in1009.1 mb 0.00 in0.0 mm 0.00 in/hr0.0 mm/hr 0.00 in0.0 mm
04:10 PM 73.9°F23.3°C 48.1°F8.9°C 40% 1.6 mph N2.6 kmh N 4.5 mph7.2 kmh 29.80 in1009.1 mb 0.00 in0.0 mm 0.00 in/hr0.0 mm/hr 0.00 in0.0 mm
04:15 PM 73.8°F23.2°C 48.6°F9.2°C 41% 0.7 mph NW1.1 kmh NW 4.5 mph7.2 kmh 29.80 in1009.1 mb 0.00 in0.0 mm 0.00 in/hr0.0 mm/hr 0.00 in0.0 mm
04:20 PM 73.4°F23.0°C 48.3°F9.1°C 41% Calm Calm 4.5 mph7.2 kmh 29.80 in1009.1 mb 0.00 in0.0 mm 0.00 in/hr0.0 mm/hr 0.00 in0.0 mm
04:25 PM 73.4°F23.0°C 48.9°F9.4°C 42% 1.6 mph NNW2.6 kmh NNW 6.9 mph11.1 kmh 29.80 in1009.1 mb 0.00 in0.0 mm 0.00 in/hr0.0 mm/hr 0.00 in0.0 mm
04:30 PM 73.4°F23.0°C 48.3°F9.1°C 41% 2.2 mph N3.5 kmh N 6.9 mph11.1 kmh 29.80 in1009.1 mb 0.00 in0.0 mm 0.00 in/hr0.0 mm/hr 0.00 in0.0 mm
04:35 PM 73.4°F23.0°C 48.9°F9.4°C 42% 0.7 mph N1.1 kmh N 6.9 mph11.1 kmh 29.79 in1008.8 mb 0.00 in0.0 mm 0.00 in/hr0.0 mm/hr 0.00 in0.0 mm
04:40 PM 73.6°F23.1°C 49.7°F9.8°C 43% 2.2 mph N3.5 kmh N 6.9 mph11.1 kmh 29.79 in1008.8 mb 0.00 in0.0 mm 0.00 in/hr0.0 mm/hr 0.00 in0.0 mm
04:45 PM 73.8°F23.2°C 49.3°F9.6°C 42% 1.6 mph N2.6 kmh N 7.6 mph12.2 kmh 29.79 in1008.8 mb 0.00 in0.0 mm 0.00 in/hr0.0 mm/hr 0.00 in0.0 mm
04:50 PM 73.2°F22.9°C 48.8°F9.3°C 42% 2.2 mph NW3.5 kmh NW 7.6 mph12.2 kmh 29.79 in1008.8 mb 0.00 in0.0 mm 0.00 in/hr0.0 mm/hr 0.00 in0.0 mm
04:55 PM 72.9°F22.7°C 48.5°F9.2°C 42% 0.7 mph NW1.1 kmh NW 6.9 mph11.1 kmh 29.79 in1008.8 mb 0.00 in0.0 mm 0.00 in/hr0.0 mm/hr 0.00 in0.0 mm
05:00 PM 72.5°F22.5°C 48.8°F9.3°C 43% 3.1 mph NW5.0 kmh NW 7.6 mph12.2 kmh 29.79 in1008.8 mb 0.00 in0.0 mm 0.00 in/hr0.0 mm/hr 0.00 in0.0 mm
05:05 PM 72.5°F22.5°C 48.8°F9.3°C 43% 3.1 mph WSW5.0 kmh WSW 7.6 mph12.2 kmh 29.78 in1008.5 mb 0.00 in0.0 mm 0.00 in/hr0.0 mm/hr 0.00 in0.0 mm
05:10 PM 72.0°F22.2°C 48.9°F9.4°C 44% 0.7 mph SW1.1 kmh SW 7.6 mph12.2 kmh 29.79 in1008.8 mb 0.00 in0.0 mm 0.00 in/hr0.0 mm/hr 0.00 in0.0 mm
05:15 PM 72.1°F22.3°C 49.0°F9.4°C 44% 2.2 mph WSW3.5 kmh WSW 7.6 mph12.2 kmh 29.79 in1008.8 mb 0.00 in0.0 mm 0.00 in/hr0.0 mm/hr 0.00 in0.0 mm
05:20 PM 72.1°F22.3°C 49.0°F9.4°C 44% 2.2 mph NW3.5 kmh NW 6.0 mph9.7 kmh 29.79 in1008.8 mb 0.00 in0.0 mm 0.00 in/hr0.0 mm/hr 0.00 in0.0 mm
05:25 PM 72.0°F22.2°C 48.9°F9.4°C 44% 1.6 mph NW2.6 kmh NW 6.9 mph11.1 kmh 29.79 in1008.8 mb 0.00 in0.0 mm 0.00 in/hr0.0 mm/hr 0.00 in0.0 mm
05:30 PM 71.6°F22.0°C 48.6°F9.2°C 44% 0.7 mph NW1.1 kmh NW 6.9 mph11.1 kmh 29.79 in1008.8 mb 0.00 in0.0 mm 0.00 in/hr0.0 mm/hr 0.00 in0.0 mm
05:35 PM 71.4°F21.9°C 49.0°F9.4°C 45% 2.2 mph NW3.5 kmh NW 6.9 mph11.1 kmh 29.79 in1008.8 mb 0.00 in0.0 mm 0.00 in/hr0.0 mm/hr 0.00 in0.0 mm
05:40 PM 71.2°F21.8°C 48.8°F9.3°C 45% 2.2 mph NW3.5 kmh NW 6.9 mph11.1 kmh 29.79 in1008.8 mb 0.00 in0.0 mm 0.00 in/hr0.0 mm/hr 0.00 in0.0 mm
05:45 PM 71.1°F21.7°C 48.7°F9.3°C 45% 1.6 mph NNW2.6 kmh NNW 6.9 mph11.1 kmh 29.79 in1008.8 mb 0.00 in0.0 mm 0.00 in/hr0.0 mm/hr 0.00 in0.0 mm
05:50 PM 70.9°F21.6°C 48.5°F9.2°C 45% 2.2 mph N3.5 kmh N 6.9 mph11.1 kmh 29.79 in1008.8 mb 0.00 in0.0 mm 0.00 in/hr0.0 mm/hr 0.00 in0.0 mm
05:55 PM 70.7°F21.5°C 48.3°F9.1°C 45% 0.7 mph N1.1 kmh N 6.9 mph11.1 kmh 29.79 in1008.8 mb 0.00 in0.0 mm 0.00 in/hr0.0 mm/hr 0.00 in0.0 mm
06:00 PM 70.9°F21.6°C 48.5°F9.2°C 45% 3.1 mph NNW5.0 kmh NNW 6.9 mph11.1 kmh 29.79 in1008.8 mb 0.00 in0.0 mm 0.00 in/hr0.0 mm/hr 0.00 in0.0 mm
06:05 PM 70.9°F21.6°C 48.5°F9.2°C 45% 3.1 mph NW5.0 kmh NW 6.9 mph11.1 kmh 29.78 in1008.5 mb 0.00 in0.0 mm 0.00 in/hr0.0 mm/hr 0.00 in0.0 mm
06:10 PM 70.5°F21.4°C 47.6°F8.7°C 44% 3.8 mph NW6.1 kmh NW 8.3 mph13.4 kmh 29.79 in1008.8 mb 0.00 in0.0 mm 0.00 in/hr0.0 mm/hr 0.00 in0.0 mm
06:15 PM 70.2°F21.2°C 48.4°F9.1°C 46% 4.5 mph NNW7.2 kmh NNW 8.3 mph13.4 kmh 29.79 in1008.8 mb 0.00 in0.0 mm 0.00 in/hr0.0 mm/hr 0.00 in0.0 mm
06:20 PM 69.6°F20.9°C 49.6°F9.8°C 49% 2.2 mph N3.5 kmh N 9.8 mph15.8 kmh 29.78 in1008.5 mb 0.00 in0.0 mm 0.00 in/hr0.0 mm/hr 0.00 in0.0 mm
06:25 PM 69.1°F20.6°C 49.7°F9.8°C 50% 3.8 mph N6.1 kmh N 9.8 mph15.8 kmh 29.78 in1008.5 mb 0.00 in0.0 mm 0.00 in/hr0.0 mm/hr 0.00 in0.0 mm
06:30 PM 68.5°F20.3°C 49.7°F9.8°C 51% 3.1 mph NE5.0 kmh NE 9.2 mph14.8 kmh 29.79 in1008.8 mb 0.00 in0.0 mm 0.00 in/hr0.0 mm/hr 0.00 in0.0 mm
06:35 PM 68.0°F20.0°C 50.3°F10.2°C 53% 2.2 mph NE3.5 kmh NE 9.8 mph15.8 kmh 29.78 in1008.5 mb 0.00 in0.0 mm 0.00 in/hr0.0 mm/hr 0.00 in0.0 mm
06:40 PM 67.6°F19.8°C 49.9°F9.9°C 53% 2.2 mph N3.5 kmh N 9.8 mph15.8 kmh 29.78 in1008.5 mb 0.00 in0.0 mm 0.00 in/hr0.0 mm/hr 0.00 in0.0 mm
06:45 PM 67.1°F19.5°C 49.9°F9.9°C 54% 3.8 mph N6.1 kmh N 8.3 mph13.4 kmh 29.78 in1008.5 mb 0.00 in0.0 mm 0.00 in/hr0.0 mm/hr 0.00 in0.0 mm
06:50 PM 66.6°F19.2°C 49.4°F9.7°C 54% 1.6 mph N2.6 kmh N 8.3 mph13.4 kmh 29.78 in1008.5 mb 0.00 in0.0 mm 0.00 in/hr0.0 mm/hr 0.00 in0.0 mm
06:55 PM 66.0°F18.9°C 49.4°F9.7°C 55% 3.1 mph N5.0 kmh N 7.6 mph12.2 kmh 29.78 in1008.5 mb 0.00 in0.0 mm 0.00 in/hr0.0 mm/hr 0.00 in0.0 mm
07:00 PM 65.5°F18.6°C 49.4°F9.7°C 56% 5.4 mph N8.7 kmh N 9.2 mph14.8 kmh 29.78 in1008.5 mb 0.00 in0.0 mm 0.00 in/hr0.0 mm/hr 0.00 in0.0 mm
07:05 PM 65.5°F18.6°C 49.4°F9.7°C 56% 5.4 mph N8.7 kmh N 9.2 mph14.8 kmh 29.79 in1008.8 mb 0.00 in0.0 mm 0.00 in/hr0.0 mm/hr 0.00 in0.0 mm
07:10 PM 64.8°F18.2°C 49.2°F9.6°C 57% 3.8 mph N6.1 kmh N 9.2 mph14.8 kmh 29.78 in1008.5 mb 0.00 in0.0 mm 0.00 in/hr0.0 mm/hr 0.00 in0.0 mm
07:15 PM 64.4°F18.0°C 48.9°F9.4°C 57% 1.6 mph N2.6 kmh N 9.2 mph14.8 kmh 29.79 in1008.8 mb 0.00 in0.0 mm 0.00 in/hr0.0 mm/hr 0.00 in0.0 mm
07:20 PM 64.0°F17.8°C 48.5°F9.2°C 57% 1.6 mph N2.6 kmh N 9.2 mph14.8 kmh 29.79 in1008.8 mb 0.00 in0.0 mm 0.00 in/hr0.0 mm/hr 0.00 in0.0 mm
07:25 PM 63.9°F17.7°C 48.3°F9.1°C 57% 3.1 mph N5.0 kmh N 9.2 mph14.8 kmh 29.79 in1008.8 mb 0.00 in0.0 mm 0.00 in/hr0.0 mm/hr 0.00 in0.0 mm
07:30 PM 63.5°F17.5°C 48.0°F8.9°C 57% 3.8 mph N6.1 kmh N 9.2 mph14.8 kmh 29.79 in1008.8 mb 0.00 in0.0 mm 0.00 in/hr0.0 mm/hr 0.00 in0.0 mm
07:35 PM 63.1°F17.3°C 47.7°F8.7°C 57% 2.2 mph N3.5 kmh N 9.2 mph14.8 kmh 29.79 in1008.8 mb 0.00 in0.0 mm 0.00 in/hr0.0 mm/hr 0.00 in0.0 mm
07:40 PM 63.0°F17.2°C 47.5°F8.6°C 57% 2.2 mph N3.5 kmh N 9.2 mph14.8 kmh 29.79 in1008.8 mb 0.00 in0.0 mm 0.00 in/hr0.0 mm/hr 0.00 in0.0 mm
07:45 PM 62.6°F17.0°C 47.2°F8.4°C 57% 0.7 mph NE1.1 kmh NE 6.0 mph9.7 kmh 29.79 in1008.8 mb 0.00 in0.0 mm 0.00 in/hr0.0 mm/hr 0.00 in0.0 mm
07:50 PM 62.4°F16.9°C 47.5°F8.6°C 58% 2.2 mph N3.5 kmh N 6.0 mph9.7 kmh 29.80 in1009.1 mb 0.00 in0.0 mm 0.00 in/hr0.0 mm/hr 0.00 in0.0 mm
07:55 PM 62.2°F16.8°C 47.3°F8.5°C 58% 0.7 mph N1.1 kmh N 7.6 mph12.2 kmh 29.79 in1008.8 mb 0.00 in0.0 mm 0.00 in/hr0.0 mm/hr 0.00 in0.0 mm
08:00 PM 62.1°F16.7°C 47.1°F8.4°C 58% 3.1 mph NNE5.0 kmh NNE 8.3 mph13.4 kmh 29.79 in1008.8 mb 0.00 in0.0 mm 0.00 in/hr0.0 mm/hr 0.00 in0.0 mm
08:05 PM 62.1°F16.7°C 47.1°F8.4°C 58% 3.1 mph NE5.0 kmh NE 8.3 mph13.4 kmh 29.80 in1009.1 mb 0.00 in0.0 mm 0.00 in/hr0.0 mm/hr 0.00 in0.0 mm
08:10 PM 61.7°F16.5°C 47.2°F8.4°C 59% 1.6 mph NE2.6 kmh NE 6.9 mph11.1 kmh 29.80 in1009.1 mb 0.00 in0.0 mm 0.00 in/hr0.0 mm/hr 0.00 in0.0 mm
08:15 PM 61.5°F16.4°C 47.5°F8.6°C 60% 1.6 mph N2.6 kmh N 6.9 mph11.1 kmh 29.81 in1009.5 mb 0.00 in0.0 mm 0.00 in/hr0.0 mm/hr 0.00 in0.0 mm
08:20 PM 61.3°F16.3°C 47.3°F8.5°C 60% 0.7 mph N1.1 kmh N 5.4 mph8.7 kmh 29.80 in1009.1 mb 0.00 in0.0 mm 0.00 in/hr0.0 mm/hr 0.00 in0.0 mm
08:25 PM 61.2°F16.2°C 47.6°F8.7°C 61% 2.2 mph N3.5 kmh N 6.0 mph9.7 kmh 29.80 in1009.1 mb 0.00 in0.0 mm 0.00 in/hr0.0 mm/hr 0.00 in0.0 mm
08:30 PM 61.2°F16.2°C 47.6°F8.7°C 61% 1.6 mph N2.6 kmh N 6.9 mph11.1 kmh 29.81 in1009.5 mb 0.00 in0.0 mm 0.00 in/hr0.0 mm/hr 0.00 in0.0 mm
08:35 PM 61.0°F16.1°C 47.5°F8.6°C 61% 1.6 mph NNW2.6 kmh NNW 6.9 mph11.1 kmh 29.81 in1009.5 mb 0.00 in0.0 mm 0.00 in/hr0.0 mm/hr 0.00 in0.0 mm
08:40 PM 60.8°F16.0°C 47.3°F8.5°C 61% 3.8 mph NNE6.1 kmh NNE 8.3 mph13.4 kmh 29.81 in1009.5 mb 0.00 in0.0 mm 0.00 in/hr0.0 mm/hr 0.00 in0.0 mm
08:45 PM 60.6°F15.9°C 47.1°F8.4°C 61% 3.8 mph NNE6.1 kmh NNE 8.3 mph13.4 kmh 29.81 in1009.5 mb 0.00 in0.0 mm 0.00 in/hr0.0 mm/hr 0.00 in0.0 mm
08:50 PM 60.4°F15.8°C 46.9°F8.3°C 61% 1.6 mph N2.6 kmh N 8.3 mph13.4 kmh 29.81 in1009.5 mb 0.00 in0.0 mm 0.00 in/hr0.0 mm/hr 0.00 in0.0 mm
08:55 PM 60.4°F15.8°C 46.9°F8.3°C 61% 0.7 mph N1.1 kmh N 6.0 mph9.7 kmh 29.81 in1009.5 mb 0.00 in0.0 mm 0.00 in/hr0.0 mm/hr 0.00 in0.0 mm
09:00 PM 60.4°F15.8°C 46.9°F8.3°C 61% 1.6 mph N2.6 kmh N 6.9 mph11.1 kmh 29.81 in1009.5 mb 0.00 in0.0 mm 0.00 in/hr0.0 mm/hr 0.00 in0.0 mm
09:05 PM 60.4°F15.8°C 46.9°F8.3°C 61% 1.6 mph N2.6 kmh N 6.9 mph11.1 kmh 29.81 in1009.5 mb 0.00 in0.0 mm 0.00 in/hr0.0 mm/hr 0.00 in0.0 mm
09:10 PM 59.9°F15.5°C 46.4°F8.0°C 61% 1.6 mph N2.6 kmh N 6.0 mph9.7 kmh 29.81 in1009.5 mb 0.00 in0.0 mm 0.00 in/hr0.0 mm/hr 0.00 in0.0 mm
09:15 PM 59.7°F15.4°C 46.7°F8.2°C 62% 1.6 mph N2.6 kmh N 6.0 mph9.7 kmh 29.81 in1009.5 mb 0.00 in0.0 mm 0.00 in/hr0.0 mm/hr 0.00 in0.0 mm
09:20 PM 59.7°F15.4°C 46.7°F8.2°C 62% 2.2 mph N3.5 kmh N 5.4 mph8.7 kmh 29.81 in1009.5 mb 0.00 in0.0 mm 0.00 in/hr0.0 mm/hr 0.00 in0.0 mm
09:25 PM 59.5°F15.3°C 46.5°F8.1°C 62% 1.6 mph N2.6 kmh N 6.9 mph11.1 kmh 29.81 in1009.5 mb 0.00 in0.0 mm 0.00 in/hr0.0 mm/hr 0.00 in0.0 mm
09:30 PM 59.4°F15.2°C 46.4°F8.0°C 62% 1.6 mph NNW2.6 kmh NNW 6.9 mph11.1 kmh 29.81 in1009.5 mb 0.00 in0.0 mm 0.00 in/hr0.0 mm/hr 0.00 in0.0 mm
09:35 PM 59.2°F15.1°C 46.2°F7.9°C 62% 0.7 mph NNW1.1 kmh NNW 6.0 mph9.7 kmh 29.81 in1009.5 mb 0.00 in0.0 mm 0.00 in/hr0.0 mm/hr 0.00 in0.0 mm
09:40 PM 59.2°F15.1°C 46.2°F7.9°C 62% 1.6 mph N2.6 kmh N 6.0 mph9.7 kmh 29.82 in1009.8 mb 0.00 in0.0 mm 0.00 in/hr0.0 mm/hr 0.00 in0.0 mm
09:45 PM 59.0°F15.0°C 46.0°F7.8°C 62% 2.2 mph NNE3.5 kmh NNE 5.4 mph8.7 kmh 29.81 in1009.5 mb 0.00 in0.0 mm 0.00 in/hr0.0 mm/hr 0.00 in0.0 mm
09:50 PM 59.0°F15.0°C 46.0°F7.8°C 62% 1.6 mph NNE2.6 kmh NNE 5.4 mph8.7 kmh 29.81 in1009.5 mb 0.00 in0.0 mm 0.00 in/hr0.0 mm/hr 0.00 in0.0 mm
09:55 PM 59.0°F15.0°C 46.0°F7.8°C 62% 1.6 mph N2.6 kmh N 5.4 mph8.7 kmh 29.81 in1009.5 mb 0.00 in0.0 mm 0.00 in/hr0.0 mm/hr 0.00 in0.0 mm
10:00 PM 58.8°F14.9°C 45.8°F7.7°C 62% 0.7 mph N1.1 kmh N 5.4 mph8.7 kmh 29.81 in1009.5 mb 0.00 in0.0 mm 0.00 in/hr0.0 mm/hr 0.00 in0.0 mm
10:05 PM 58.8°F14.9°C 45.8°F7.7°C 62% 0.7 mph WSW1.1 kmh WSW 3.8 mph6.1 kmh 29.81 in1009.5 mb 0.00 in0.0 mm 0.00 in/hr0.0 mm/hr 0.00 in0.0 mm
10:10 PM 58.6°F14.8°C 45.7°F7.6°C 62% 0.7 mph WSW1.1 kmh WSW 4.5 mph7.2 kmh 29.81 in1009.5 mb 0.00 in0.0 mm 0.00 in/hr0.0 mm/hr 0.00 in0.0 mm
10:15 PM 58.6°F14.8°C 45.7°F7.6°C 62% 1.6 mph NW2.6 kmh NW 7.6 mph12.2 kmh 29.80 in1009.1 mb 0.00 in0.0 mm 0.00 in/hr0.0 mm/hr 0.00 in0.0 mm
10:20 PM 58.5°F14.7°C 45.9°F7.7°C 63% 2.2 mph N3.5 kmh N 7.6 mph12.2 kmh 29.80 in1009.1 mb 0.00 in0.0 mm 0.00 in/hr0.0 mm/hr 0.00 in0.0 mm
10:25 PM 58.5°F14.7°C 45.9°F7.7°C 63% 1.6 mph N2.6 kmh N 5.4 mph8.7 kmh 29.81 in1009.5 mb 0.00 in0.0 mm 0.00 in/hr0.0 mm/hr 0.00 in0.0 mm
10:30 PM 58.3°F14.6°C 45.8°F7.7°C 63% 1.6 mph N2.6 kmh N 5.4 mph8.7 kmh 29.80 in1009.1 mb 0.00 in0.0 mm 0.00 in/hr0.0 mm/hr 0.00 in0.0 mm
10:35 PM 58.3°F14.6°C 46.2°F7.9°C 64% 2.2 mph NE3.5 kmh NE 5.4 mph8.7 kmh 29.80 in1009.1 mb 0.00 in0.0 mm 0.00 in/hr0.0 mm/hr 0.00 in0.0 mm
10:40 PM 58.3°F14.6°C 46.2°F7.9°C 64% 2.2 mph NNE3.5 kmh NNE 5.4 mph8.7 kmh 29.80 in1009.1 mb 0.00 in0.0 mm 0.00 in/hr0.0 mm/hr 0.00 in0.0 mm
10:45 PM 58.3°F14.6°C 46.2°F7.9°C 64% 0.7 mph N1.1 kmh N 5.4 mph8.7 kmh 29.80 in1009.1 mb 0.00 in0.0 mm 0.00 in/hr0.0 mm/hr 0.00 in0.0 mm
10:50 PM 58.3°F14.6°C 46.6°F8.1°C 65% 1.6 mph N2.6 kmh N 7.6 mph12.2 kmh 29.80 in1009.1 mb 0.00 in0.0 mm 0.00 in/hr0.0 mm/hr 0.00 in0.0 mm
10:55 PM 58.1°F14.5°C 46.4°F8.0°C 65% 1.6 mph NNE2.6 kmh NNE 7.6 mph12.2 kmh 29.80 in1009.1 mb 0.00 in0.0 mm 0.00 in/hr0.0 mm/hr 0.00 in0.0 mm
11:00 PM 58.1°F14.5°C 46.8°F8.2°C 66% 1.6 mph N2.6 kmh N 5.4 mph8.7 kmh 29.80 in1009.1 mb 0.00 in0.0 mm 0.00 in/hr0.0 mm/hr 0.00 in0.0 mm
11:05 PM 58.1°F14.5°C 46.8°F8.2°C 66% 1.6 mph N2.6 kmh N 5.4 mph8.7 kmh 29.80 in1009.1 mb 0.00 in0.0 mm 0.00 in/hr0.0 mm/hr 0.00 in0.0 mm
11:10 PM 57.7°F14.3°C 46.9°F8.3°C 67% 2.2 mph NNE3.5 kmh NNE 5.4 mph8.7 kmh 29.79 in1008.8 mb 0.00 in0.0 mm 0.00 in/hr0.0 mm/hr 0.00 in0.0 mm
11:15 PM 57.7°F14.3°C 46.9°F8.3°C 67% 2.2 mph N3.5 kmh N 8.3 mph13.4 kmh 29.79 in1008.8 mb 0.00 in0.0 mm 0.00 in/hr0.0 mm/hr 0.00 in0.0 mm
11:20 PM 57.6°F14.2°C 47.1°F8.4°C 68% 3.8 mph N6.1 kmh N 8.3 mph13.4 kmh 29.79 in1008.8 mb 0.00 in0.0 mm 0.00 in/hr0.0 mm/hr 0.00 in0.0 mm
11:25 PM 57.6°F14.2°C 47.1°F8.4°C 68% 1.6 mph NNE2.6 kmh NNE 9.2 mph14.8 kmh 29.79 in1008.8 mb 0.00 in0.0 mm 0.00 in/hr0.0 mm/hr 0.00 in0.0 mm
11:30 PM 57.4°F14.1°C 47.3°F8.5°C 69% 1.6 mph NNE2.6 kmh NNE 9.2 mph14.8 kmh 29.79 in1008.8 mb 0.00 in0.0 mm 0.00 in/hr0.0 mm/hr 0.00 in0.0 mm
11:35 PM 57.2°F14.0°C 47.1°F8.4°C 69% 1.6 mph N2.6 kmh N 7.6 mph12.2 kmh 29.79 in1008.8 mb 0.00 in0.0 mm 0.00 in/hr0.0 mm/hr 0.00 in0.0 mm
11:40 PM 57.0°F13.9°C 47.3°F8.5°C 70% 1.6 mph N2.6 kmh N 6.0 mph9.7 kmh 29.79 in1008.8 mb 0.00 in0.0 mm 0.00 in/hr0.0 mm/hr 0.00 in0.0 mm
11:45 PM 56.8°F13.8°C 47.5°F8.6°C 71% 1.6 mph N2.6 kmh N 6.0 mph9.7 kmh 29.79 in1008.8 mb 0.00 in0.0 mm 0.00 in/hr0.0 mm/hr 0.00 in0.0 mm
11:50 PM 56.7°F13.7°C 47.4°F8.6°C 71% 1.6 mph N2.6 kmh N 7.6 mph12.2 kmh 29.79 in1008.8 mb 0.00 in0.0 mm 0.00 in/hr0.0 mm/hr 0.00 in0.0 mm
11:55 PM 56.5°F13.6°C 47.6°F8.7°C 72% 1.6 mph N2.6 kmh N 7.6 mph12.2 kmh 29.79 in1008.8 mb 0.00 in0.0 mm 0.00 in/hr0.0 mm/hr 0.00 in0.0 mm